sensor_id;sensor_type;location;lat;lon;timestamp;P1;durP1;ratioP1;P2;durP2;ratioP2
15905;SDS011;8051;50.820;4.884;2023-03-16T00:00:15;22.43;;;20.93;;
15905;SDS011;8051;50.820;4.884;2023-03-16T00:02:43;21.63;;;20.20;;
15905;SDS011;8051;50.820;4.884;2023-03-16T00:05:11;22.67;;;20.97;;
15905;SDS011;8051;50.820;4.884;2023-03-16T00:07:41;21.57;;;20.23;;
15905;SDS011;8051;50.820;4.884;2023-03-16T00:10:09;21.97;;;20.23;;
15905;SDS011;8051;50.820;4.884;2023-03-16T00:12:38;21.63;;;20.20;;
15905;SDS011;8051;50.820;4.884;2023-03-16T00:15:08;21.57;;;19.97;;
15905;SDS011;8051;50.820;4.884;2023-03-16T00:17:35;21.47;;;20.07;;
15905;SDS011;8051;50.820;4.884;2023-03-16T00:20:03;20.80;;;19.47;;
15905;SDS011;8051;50.820;4.884;2023-03-16T00:22:31;21.00;;;19.53;;
15905;SDS011;8051;50.820;4.884;2023-03-16T00:25:01;21.20;;;19.80;;
15905;SDS011;8051;50.820;4.884;2023-03-16T00:27:28;22.10;;;20.60;;
15905;SDS011;8051;50.820;4.884;2023-03-16T00:29:56;21.13;;;19.83;;
15905;SDS011;8051;50.820;4.884;2023-03-16T00:32:24;21.00;;;19.50;;
15905;SDS011;8051;50.820;4.884;2023-03-16T00:34:53;20.50;;;19.00;;
15905;SDS011;8051;50.820;4.884;2023-03-16T00:37:21;20.53;;;19.23;;
15905;SDS011;8051;50.820;4.884;2023-03-16T00:39:50;18.87;;;17.60;;
15905;SDS011;8051;50.820;4.884;2023-03-16T00:42:22;20.93;;;19.20;;
15905;SDS011;8051;50.820;4.884;2023-03-16T00:44:51;20.83;;;19.23;;
15905;SDS011;8051;50.820;4.884;2023-03-16T00:47:21;21.00;;;19.60;;
15905;SDS011;8051;50.820;4.884;2023-03-16T00:49:49;20.33;;;19.23;;
15905;SDS011;8051;50.820;4.884;2023-03-16T00:52:17;21.20;;;19.90;;
15905;SDS011;8051;50.820;4.884;2023-03-16T00:54:45;19.57;;;18.30;;
15905;SDS011;8051;50.820;4.884;2023-03-16T00:57:13;21.30;;;19.70;;
15905;SDS011;8051;50.820;4.884;2023-03-16T00:59:44;21.03;;;19.83;;
15905;SDS011;8051;50.820;4.884;2023-03-16T01:02:12;21.90;;;20.60;;
15905;SDS011;8051;50.820;4.884;2023-03-16T01:04:41;20.13;;;18.87;;
15905;SDS011;8051;50.820;4.884;2023-03-16T01:07:09;21.30;;;19.47;;
15905;SDS011;8051;50.820;4.884;2023-03-16T01:09:39;20.30;;;18.57;;
15905;SDS011;8051;50.820;4.884;2023-03-16T01:12:08;20.13;;;18.80;;
15905;SDS011;8051;50.820;4.884;2023-03-16T01:14:37;19.07;;;17.80;;
15905;SDS011;8051;50.820;4.884;2023-03-16T01:17:07;19.80;;;18.40;;
15905;SDS011;8051;50.820;4.884;2023-03-16T01:19:35;19.50;;;18.20;;
15905;SDS011;8051;50.820;4.884;2023-03-16T01:22:03;19.60;;;18.50;;
15905;SDS011;8051;50.820;4.884;2023-03-16T01:24:32;18.93;;;17.53;;
15905;SDS011;8051;50.820;4.884;2023-03-16T01:27:00;19.10;;;17.90;;
15905;SDS011;8051;50.820;4.884;2023-03-16T01:29:28;20.20;;;18.87;;
15905;SDS011;8051;50.820;4.884;2023-03-16T01:31:57;18.90;;;17.70;;
15905;SDS011;8051;50.820;4.884;2023-03-16T01:34:26;19.63;;;18.40;;
15905;SDS011;8051;50.820;4.884;2023-03-16T01:36:54;19.23;;;17.67;;
15905;SDS011;8051;50.820;4.884;2023-03-16T01:39:21;19.07;;;17.97;;
15905;SDS011;8051;50.820;4.884;2023-03-16T01:41:49;18.30;;;17.30;;
15905;SDS011;8051;50.820;4.884;2023-03-16T01:44:18;20.67;;;19.07;;
15905;SDS011;8051;50.820;4.884;2023-03-16T01:46:48;20.27;;;18.60;;
15905;SDS011;8051;50.820;4.884;2023-03-16T01:49:16;20.30;;;18.90;;
15905;SDS011;8051;50.820;4.884;2023-03-16T01:51:51;20.30;;;18.47;;
15905;SDS011;8051;50.820;4.884;2023-03-16T01:54:22;19.30;;;18.20;;
15905;SDS011;8051;50.820;4.884;2023-03-16T01:56:56;19.60;;;18.27;;
15905;SDS011;8051;50.820;4.884;2023-03-16T01:59:29;19.60;;;18.30;;
15905;SDS011;8051;50.820;4.884;2023-03-16T02:02:00;18.97;;;17.77;;
15905;SDS011;8051;50.820;4.884;2023-03-16T02:04:30;19.93;;;18.43;;
15905;SDS011;8051;50.820;4.884;2023-03-16T02:07:08;19.37;;;18.27;;
15905;SDS011;8051;50.820;4.884;2023-03-16T02:09:36;20.57;;;19.07;;
15905;SDS011;8051;50.820;4.884;2023-03-16T02:12:08;19.53;;;18.33;;
15905;SDS011;8051;50.820;4.884;2023-03-16T02:14:42;20.10;;;18.80;;
15905;SDS011;8051;50.820;4.884;2023-03-16T02:17:10;20.23;;;19.13;;
15905;SDS011;8051;50.820;4.884;2023-03-16T02:19:41;20.03;;;18.90;;
15905;SDS011;8051;50.820;4.884;2023-03-16T02:22:16;20.20;;;18.90;;
15905;SDS011;8051;50.820;4.884;2023-03-16T02:24:44;21.03;;;19.53;;
15905;SDS011;8051;50.820;4.884;2023-03-16T02:27:12;21.37;;;20.10;;
15905;SDS011;8051;50.820;4.884;2023-03-16T02:29:55;20.97;;;19.27;;
15905;SDS011;8051;50.820;4.884;2023-03-16T02:32:27;22.23;;;20.50;;
15905;SDS011;8051;50.820;4.884;2023-03-16T02:34:57;22.57;;;20.97;;
15905;SDS011;8051;50.820;4.884;2023-03-16T02:37:26;22.10;;;20.50;;
15905;SDS011;8051;50.820;4.884;2023-03-16T02:39:53;22.03;;;20.53;;
15905;SDS011;8051;50.820;4.884;2023-03-16T02:42:21;22.40;;;20.83;;
15905;SDS011;8051;50.820;4.884;2023-03-16T02:44:52;22.30;;;20.90;;
15905;SDS011;8051;50.820;4.884;2023-03-16T02:47:26;22.87;;;21.33;;
15905;SDS011;8051;50.820;4.884;2023-03-16T02:50:15;23.10;;;21.00;;
15905;SDS011;8051;50.820;4.884;2023-03-16T02:52:43;21.97;;;20.30;;
15905;SDS011;8051;50.820;4.884;2023-03-16T02:55:12;21.07;;;19.77;;
15905;SDS011;8051;50.820;4.884;2023-03-16T02:57:40;22.23;;;20.73;;
15905;SDS011;8051;50.820;4.884;2023-03-16T03:00:09;22.40;;;20.77;;
15905;SDS011;8051;50.820;4.884;2023-03-16T03:02:41;21.80;;;20.07;;
15905;SDS011;8051;50.820;4.884;2023-03-16T03:05:08;22.20;;;20.50;;
15905;SDS011;8051;50.820;4.884;2023-03-16T03:07:36;22.03;;;20.33;;
15905;SDS011;8051;50.820;4.884;2023-03-16T03:10:04;23.03;;;21.20;;
15905;SDS011;8051;50.820;4.884;2023-03-16T03:12:32;21.80;;;20.40;;
15905;SDS011;8051;50.820;4.884;2023-03-16T03:15:00;21.83;;;20.23;;
15905;SDS011;8051;50.820;4.884;2023-03-16T03:17:29;21.30;;;19.83;;
15905;SDS011;8051;50.820;4.884;2023-03-16T03:19:57;21.57;;;20.17;;
15905;SDS011;8051;50.820;4.884;2023-03-16T03:22:26;23.00;;;21.47;;
15905;SDS011;8051;50.820;4.884;2023-03-16T03:24:53;24.90;;;23.10;;
15905;SDS011;8051;50.820;4.884;2023-03-16T03:27:21;24.53;;;22.60;;
15905;SDS011;8051;50.820;4.884;2023-03-16T03:29:49;22.93;;;21.63;;
15905;SDS011;8051;50.820;4.884;2023-03-16T03:32:16;26.27;;;23.63;;
15905;SDS011;8051;50.820;4.884;2023-03-16T03:34:45;27.17;;;25.37;;
15905;SDS011;8051;50.820;4.884;2023-03-16T03:37:13;26.83;;;25.03;;
15905;SDS011;8051;50.820;4.884;2023-03-16T03:39:40;30.23;;;27.73;;
15905;SDS011;8051;50.820;4.884;2023-03-16T03:42:09;27.97;;;25.87;;
15905;SDS011;8051;50.820;4.884;2023-03-16T03:44:37;28.57;;;26.20;;
15905;SDS011;8051;50.820;4.884;2023-03-16T03:47:05;27.63;;;25.73;;
15905;SDS011;8051;50.820;4.884;2023-03-16T03:49:32;28.47;;;26.20;;
15905;SDS011;8051;50.820;4.884;2023-03-16T03:52:01;28.40;;;26.20;;
15905;SDS011;8051;50.820;4.884;2023-03-16T03:54:29;29.50;;;27.10;;
15905;SDS011;8051;50.820;4.884;2023-03-16T03:56:57;27.57;;;25.67;;
15905;SDS011;8051;50.820;4.884;2023-03-16T03:59:24;27.37;;;25.47;;
15905;SDS011;8051;50.820;4.884;2023-03-16T04:01:52;27.93;;;25.83;;
15905;SDS011;8051;50.820;4.884;2023-03-16T04:04:19;28.07;;;25.77;;
15905;SDS011;8051;50.820;4.884;2023-03-16T04:06:47;26.33;;;24.30;;
15905;SDS011;8051;50.820;4.884;2023-03-16T04:09:16;27.67;;;25.60;;
15905;SDS011;8051;50.820;4.884;2023-03-16T04:11:44;25.40;;;23.53;;
15905;SDS011;8051;50.820;4.884;2023-03-16T04:14:11;25.07;;;22.93;;
15905;SDS011;8051;50.820;4.884;2023-03-16T04:16:39;23.60;;;21.67;;
15905;SDS011;8051;50.820;4.884;2023-03-16T04:19:08;23.30;;;21.30;;
15905;SDS011;8051;50.820;4.884;2023-03-16T04:21:36;21.57;;;19.73;;
15905;SDS011;8051;50.820;4.884;2023-03-16T04:24:03;20.20;;;18.90;;
15905;SDS011;8051;50.820;4.884;2023-03-16T04:26:32;22.70;;;20.90;;
15905;SDS011;8051;50.820;4.884;2023-03-16T04:29:00;21.73;;;20.20;;
15905;SDS011;8051;50.820;4.884;2023-03-16T04:31:28;22.60;;;21.10;;
15905;SDS011;8051;50.820;4.884;2023-03-16T04:33:55;20.57;;;19.20;;
15905;SDS011;8051;50.820;4.884;2023-03-16T04:36:22;22.63;;;20.53;;
15905;SDS011;8051;50.820;4.884;2023-03-16T04:38:50;22.43;;;20.63;;
15905;SDS011;8051;50.820;4.884;2023-03-16T04:41:18;20.43;;;18.80;;
15905;SDS011;8051;50.820;4.884;2023-03-16T04:43:47;22.13;;;20.47;;
15905;SDS011;8051;50.820;4.884;2023-03-16T04:46:14;21.83;;;19.90;;
15905;SDS011;8051;50.820;4.884;2023-03-16T04:48:41;20.20;;;18.73;;
15905;SDS011;8051;50.820;4.884;2023-03-16T04:51:09;22.07;;;20.07;;
15905;SDS011;8051;50.820;4.884;2023-03-16T04:53:36;20.20;;;18.80;;
15905;SDS011;8051;50.820;4.884;2023-03-16T04:56:04;21.40;;;19.60;;
15905;SDS011;8051;50.820;4.884;2023-03-16T04:58:32;20.80;;;19.37;;
15905;SDS011;8051;50.820;4.884;2023-03-16T05:01:01;19.53;;;18.13;;
15905;SDS011;8051;50.820;4.884;2023-03-16T05:03:29;19.73;;;18.20;;
15905;SDS011;8051;50.820;4.884;2023-03-16T05:05:56;19.67;;;18.47;;
15905;SDS011;8051;50.820;4.884;2023-03-16T05:08:24;20.20;;;18.70;;
15905;SDS011;8051;50.820;4.884;2023-03-16T05:10:55;19.27;;;17.87;;
15905;SDS011;8051;50.820;4.884;2023-03-16T05:13:23;21.33;;;20.03;;
15905;SDS011;8051;50.820;4.884;2023-03-16T05:15:50;19.60;;;18.20;;
15905;SDS011;8051;50.820;4.884;2023-03-16T05:18:20;19.73;;;18.50;;
15905;SDS011;8051;50.820;4.884;2023-03-16T05:20:48;20.60;;;19.10;;
15905;SDS011;8051;50.820;4.884;2023-03-16T05:23:16;21.27;;;19.60;;
15905;SDS011;8051;50.820;4.884;2023-03-16T05:25:44;20.63;;;19.33;;
15905;SDS011;8051;50.820;4.884;2023-03-16T05:28:12;20.93;;;19.50;;
15905;SDS011;8051;50.820;4.884;2023-03-16T05:30:40;20.63;;;19.03;;
15905;SDS011;8051;50.820;4.884;2023-03-16T05:33:09;19.80;;;18.50;;
15905;SDS011;8051;50.820;4.884;2023-03-16T05:35:38;21.77;;;19.70;;
15905;SDS011;8051;50.820;4.884;2023-03-16T05:38:07;21.90;;;20.27;;
15905;SDS011;8051;50.820;4.884;2023-03-16T05:40:35;21.07;;;19.73;;
15905;SDS011;8051;50.820;4.884;2023-03-16T05:43:02;19.40;;;18.07;;
15905;SDS011;8051;50.820;4.884;2023-03-16T05:45:30;19.90;;;18.60;;
15905;SDS011;8051;50.820;4.884;2023-03-16T05:47:58;22.27;;;20.47;;
15905;SDS011;8051;50.820;4.884;2023-03-16T05:50:26;19.97;;;18.70;;
15905;SDS011;8051;50.820;4.884;2023-03-16T05:52:55;21.70;;;20.30;;
15905;SDS011;8051;50.820;4.884;2023-03-16T05:55:23;20.63;;;19.33;;
15905;SDS011;8051;50.820;4.884;2023-03-16T05:57:51;20.70;;;19.30;;
15905;SDS011;8051;50.820;4.884;2023-03-16T06:00:19;18.93;;;17.73;;
15905;SDS011;8051;50.820;4.884;2023-03-16T06:02:47;20.43;;;18.87;;
15905;SDS011;8051;50.820;4.884;2023-03-16T06:05:16;21.40;;;19.93;;
15905;SDS011;8051;50.820;4.884;2023-03-16T06:07:46;22.47;;;20.47;;
15905;SDS011;8051;50.820;4.884;2023-03-16T06:10:17;20.23;;;18.83;;
15905;SDS011;8051;50.820;4.884;2023-03-16T06:12:44;22.17;;;20.40;;
15905;SDS011;8051;50.820;4.884;2023-03-16T06:15:12;21.97;;;20.20;;
15905;SDS011;8051;50.820;4.884;2023-03-16T06:17:39;20.93;;;19.70;;
15905;SDS011;8051;50.820;4.884;2023-03-16T06:20:08;20.83;;;19.50;;
15905;SDS011;8051;50.820;4.884;2023-03-16T06:22:37;20.70;;;19.40;;
15905;SDS011;8051;50.820;4.884;2023-03-16T06:25:05;21.27;;;19.80;;
15905;SDS011;8051;50.820;4.884;2023-03-16T06:27:36;20.87;;;19.43;;
15905;SDS011;8051;50.820;4.884;2023-03-16T06:30:04;19.90;;;18.70;;
15905;SDS011;8051;50.820;4.884;2023-03-16T06:32:34;19.53;;;18.37;;
15905;SDS011;8051;50.820;4.884;2023-03-16T06:35:02;19.93;;;18.73;;
15905;SDS011;8051;50.820;4.884;2023-03-16T06:37:30;19.33;;;18.20;;
15905;SDS011;8051;50.820;4.884;2023-03-16T06:39:58;20.13;;;18.73;;
15905;SDS011;8051;50.820;4.884;2023-03-16T06:42:25;20.83;;;18.97;;
15905;SDS011;8051;50.820;4.884;2023-03-16T06:44:54;20.00;;;18.80;;
15905;SDS011;8051;50.820;4.884;2023-03-16T06:47:22;20.40;;;19.20;;
15905;SDS011;8051;50.820;4.884;2023-03-16T06:49:49;21.47;;;19.77;;
15905;SDS011;8051;50.820;4.884;2023-03-16T06:52:19;20.20;;;18.90;;
15905;SDS011;8051;50.820;4.884;2023-03-16T06:54:47;20.40;;;18.90;;
15905;SDS011;8051;50.820;4.884;2023-03-16T06:57:14;20.10;;;19.00;;
15905;SDS011;8051;50.820;4.884;2023-03-16T06:59:41;21.13;;;19.73;;
15905;SDS011;8051;50.820;4.884;2023-03-16T07:02:10;21.37;;;19.97;;
15905;SDS011;8051;50.820;4.884;2023-03-16T07:04:39;21.67;;;19.90;;
15905;SDS011;8051;50.820;4.884;2023-03-16T07:07:07;20.27;;;19.03;;
15905;SDS011;8051;50.820;4.884;2023-03-16T07:09:36;19.37;;;18.07;;
15905;SDS011;8051;50.820;4.884;2023-03-16T07:12:03;20.47;;;19.17;;
15905;SDS011;8051;50.820;4.884;2023-03-16T07:14:31;19.60;;;18.13;;
15905;SDS011;8051;50.820;4.884;2023-03-16T07:16:58;20.83;;;18.97;;
15905;SDS011;8051;50.820;4.884;2023-03-16T07:19:27;20.37;;;19.07;;
15905;SDS011;8051;50.820;4.884;2023-03-16T07:21:55;20.03;;;18.70;;
15905;SDS011;8051;50.820;4.884;2023-03-16T07:24:23;19.83;;;18.57;;
15905;SDS011;8051;50.820;4.884;2023-03-16T07:26:50;19.97;;;18.67;;
15905;SDS011;8051;50.820;4.884;2023-03-16T07:29:18;20.40;;;19.10;;
15905;SDS011;8051;50.820;4.884;2023-03-16T07:31:46;20.53;;;19.23;;
15905;SDS011;8051;50.820;4.884;2023-03-16T07:34:13;18.83;;;17.73;;
15905;SDS011;8051;50.820;4.884;2023-03-16T07:36:42;20.07;;;18.87;;
15905;SDS011;8051;50.820;4.884;2023-03-16T07:39:09;17.60;;;16.70;;
15905;SDS011;8051;50.820;4.884;2023-03-16T07:41:38;18.97;;;17.57;;
15905;SDS011;8051;50.820;4.884;2023-03-16T07:44:06;18.00;;;16.60;;
15905;SDS011;8051;50.820;4.884;2023-03-16T07:46:33;18.30;;;17.23;;
15905;SDS011;8051;50.820;4.884;2023-03-16T07:52:53;18.90;;;17.90;;
15905;SDS011;8051;50.820;4.884;2023-03-16T07:55:25;18.80;;;17.53;;
15905;SDS011;8051;50.820;4.884;2023-03-16T07:57:53;19.23;;;17.73;;
15905;SDS011;8051;50.820;4.884;2023-03-16T08:00:21;17.73;;;16.77;;
15905;SDS011;8051;50.820;4.884;2023-03-16T08:02:48;18.77;;;17.17;;
15905;SDS011;8051;50.820;4.884;2023-03-16T08:05:17;18.83;;;17.40;;
15905;SDS011;8051;50.820;4.884;2023-03-16T08:07:45;17.53;;;16.47;;
15905;SDS011;8051;50.820;4.884;2023-03-16T08:10:14;18.83;;;17.53;;
15905;SDS011;8051;50.820;4.884;2023-03-16T08:12:42;17.10;;;16.13;;
15905;SDS011;8051;50.820;4.884;2023-03-16T08:15:09;16.83;;;15.93;;
15905;SDS011;8051;50.820;4.884;2023-03-16T08:17:36;17.50;;;16.33;;
15905;SDS011;8051;50.820;4.884;2023-03-16T08:20:06;17.70;;;16.57;;
15905;SDS011;8051;50.820;4.884;2023-03-16T08:22:37;17.13;;;16.03;;
15905;SDS011;8051;50.820;4.884;2023-03-16T08:25:05;17.57;;;16.47;;
15905;SDS011;8051;50.820;4.884;2023-03-16T08:27:36;17.60;;;16.70;;
15905;SDS011;8051;50.820;4.884;2023-03-16T08:30:04;16.90;;;15.80;;
15905;SDS011;8051;50.820;4.884;2023-03-16T08:32:35;16.13;;;15.23;;
15905;SDS011;8051;50.820;4.884;2023-03-16T08:35:04;17.00;;;15.80;;
15905;SDS011;8051;50.820;4.884;2023-03-16T08:37:32;16.37;;;15.57;;
15905;SDS011;8051;50.820;4.884;2023-03-16T08:39:59;16.10;;;15.20;;
15905;SDS011;8051;50.820;4.884;2023-03-16T08:42:28;15.70;;;14.80;;
15905;SDS011;8051;50.820;4.884;2023-03-16T08:44:58;16.20;;;15.00;;
15905;SDS011;8051;50.820;4.884;2023-03-16T08:47:31;16.67;;;15.50;;
15905;SDS011;8051;50.820;4.884;2023-03-16T08:49:59;16.87;;;15.87;;
15905;SDS011;8051;50.820;4.884;2023-03-16T08:52:26;15.53;;;14.60;;
15905;SDS011;8051;50.820;4.884;2023-03-16T08:54:54;15.50;;;14.60;;
15905;SDS011;8051;50.820;4.884;2023-03-16T08:57:21;15.00;;;14.20;;
15905;SDS011;8051;50.820;4.884;2023-03-16T08:59:48;16.27;;;15.17;;
15905;SDS011;8051;50.820;4.884;2023-03-16T09:02:17;16.50;;;15.27;;
15905;SDS011;8051;50.820;4.884;2023-03-16T09:04:46;16.00;;;15.10;;
15905;SDS011;8051;50.820;4.884;2023-03-16T09:07:14;16.23;;;15.20;;
15905;SDS011;8051;50.820;4.884;2023-03-16T09:09:43;17.37;;;15.77;;
15905;SDS011;8051;50.820;4.884;2023-03-16T09:12:11;15.90;;;14.90;;
15905;SDS011;8051;50.820;4.884;2023-03-16T09:14:38;15.87;;;14.80;;
15905;SDS011;8051;50.820;4.884;2023-03-16T09:17:06;15.33;;;14.33;;
15905;SDS011;8051;50.820;4.884;2023-03-16T09:19:37;15.00;;;14.20;;
15905;SDS011;8051;50.820;4.884;2023-03-16T09:22:04;14.20;;;13.30;;
15905;SDS011;8051;50.820;4.884;2023-03-16T09:24:32;13.77;;;12.50;;
15905;SDS011;8051;50.820;4.884;2023-03-16T09:26:59;13.83;;;12.93;;
15905;SDS011;8051;50.820;4.884;2023-03-16T09:29:27;13.37;;;12.37;;
15905;SDS011;8051;50.820;4.884;2023-03-16T09:31:54;12.63;;;11.97;;
15905;SDS011;8051;50.820;4.884;2023-03-16T09:34:22;12.87;;;12.17;;
15905;SDS011;8051;50.820;4.884;2023-03-16T09:36:51;13.50;;;12.50;;
15905;SDS011;8051;50.820;4.884;2023-03-16T09:39:19;13.60;;;12.70;;
15905;SDS011;8051;50.820;4.884;2023-03-16T09:41:47;13.13;;;12.33;;
15905;SDS011;8051;50.820;4.884;2023-03-16T09:47:07;12.10;;;11.50;;
15905;SDS011;8051;50.820;4.884;2023-03-16T09:49:39;12.37;;;11.67;;
15905;SDS011;8051;50.820;4.884;2023-03-16T09:52:15;11.73;;;11.13;;
15905;SDS011;8051;50.820;4.884;2023-03-16T09:54:52;12.33;;;11.57;;
15905;SDS011;8051;50.820;4.884;2023-03-16T09:57:26;12.10;;;11.40;;
15905;SDS011;8051;50.820;4.884;2023-03-16T09:59:56;13.47;;;12.67;;
15905;SDS011;8051;50.820;4.884;2023-03-16T10:05:36;12.63;;;11.93;;
15905;SDS011;8051;50.820;4.884;2023-03-16T10:08:10;12.63;;;11.90;;
15905;SDS011;8051;50.820;4.884;2023-03-16T10:13:34;12.67;;;11.87;;
15905;SDS011;8051;50.820;4.884;2023-03-16T10:16:06;13.50;;;12.60;;
15905;SDS011;8051;50.820;4.884;2023-03-16T10:18:40;12.70;;;11.87;;
15905;SDS011;8051;50.820;4.884;2023-03-16T10:21:11;12.83;;;12.13;;
15905;SDS011;8051;50.820;4.884;2023-03-16T10:23:42;11.30;;;10.60;;
15905;SDS011;8051;50.820;4.884;2023-03-16T10:26:12;12.43;;;11.73;;
15905;SDS011;8051;50.820;4.884;2023-03-16T10:28:43;12.43;;;11.80;;
15905;SDS011;8051;50.820;4.884;2023-03-16T10:31:12;12.27;;;11.67;;
15905;SDS011;8051;50.820;4.884;2023-03-16T10:33:42;12.10;;;11.33;;
15905;SDS011;8051;50.820;4.884;2023-03-16T10:36:12;12.40;;;11.60;;
15905;SDS011;8051;50.820;4.884;2023-03-16T10:38:45;12.63;;;11.90;;
15905;SDS011;8051;50.820;4.884;2023-03-16T10:41:20;12.53;;;11.90;;
15905;SDS011;8051;50.820;4.884;2023-03-16T10:43:51;12.17;;;11.37;;
15905;SDS011;8051;50.820;4.884;2023-03-16T10:46:36;12.23;;;11.47;;
15905;SDS011;8051;50.820;4.884;2023-03-16T10:50:00;11.50;;;10.90;;
15905;SDS011;8051;50.820;4.884;2023-03-16T10:52:42;11.17;;;10.50;;
15905;SDS011;8051;50.820;4.884;2023-03-16T10:55:16;11.30;;;10.70;;
15905;SDS011;8051;50.820;4.884;2023-03-16T10:57:48;11.87;;;11.03;;
15905;SDS011;8051;50.820;4.884;2023-03-16T11:00:19;11.03;;;10.33;;
15905;SDS011;8051;50.820;4.884;2023-03-16T11:02:49;11.73;;;11.13;;
15905;SDS011;8051;50.820;4.884;2023-03-16T11:05:27;11.43;;;10.90;;
15905;SDS011;8051;50.820;4.884;2023-03-16T11:08:00;11.87;;;11.17;;
15905;SDS011;8051;50.820;4.884;2023-03-16T11:10:36;12.83;;;11.97;;
15905;SDS011;8051;50.820;4.884;2023-03-16T11:13:08;10.93;;;10.07;;
15905;SDS011;8051;50.820;4.884;2023-03-16T11:15:40;11.40;;;10.80;;
15905;SDS011;8051;50.820;4.884;2023-03-16T11:18:26;11.27;;;10.40;;
15905;SDS011;8051;50.820;4.884;2023-03-16T11:20:57;10.70;;;10.07;;
15905;SDS011;8051;50.820;4.884;2023-03-16T11:23:30;9.97;;;9.40;;
15905;SDS011;8051;50.820;4.884;2023-03-16T11:26:01;10.57;;;9.83;;
15905;SDS011;8051;50.820;4.884;2023-03-16T11:28:33;11.47;;;10.87;;
15905;SDS011;8051;50.820;4.884;2023-03-16T11:31:07;11.57;;;10.63;;
15905;SDS011;8051;50.820;4.884;2023-03-16T11:33:42;11.50;;;10.90;;
15905;SDS011;8051;50.820;4.884;2023-03-16T11:36:14;11.40;;;10.70;;
15905;SDS011;8051;50.820;4.884;2023-03-16T11:38:56;12.00;;;11.17;;
15905;SDS011;8051;50.820;4.884;2023-03-16T11:41:34;11.27;;;10.67;;
15905;SDS011;8051;50.820;4.884;2023-03-16T11:44:12;11.50;;;10.63;;
15905;SDS011;8051;50.820;4.884;2023-03-16T11:46:49;11.03;;;10.43;;
15905;SDS011;8051;50.820;4.884;2023-03-16T11:49:29;11.30;;;10.70;;
15905;SDS011;8051;50.820;4.884;2023-03-16T11:52:08;11.93;;;11.07;;
15905;SDS011;8051;50.820;4.884;2023-03-16T11:54:48;11.37;;;10.70;;
15905;SDS011;8051;50.820;4.884;2023-03-16T11:57:32;12.67;;;11.97;;
15905;SDS011;8051;50.820;4.884;2023-03-16T12:00:16;12.10;;;11.40;;
15905;SDS011;8051;50.820;4.884;2023-03-16T12:02:53;11.90;;;11.20;;
15905;SDS011;8051;50.820;4.884;2023-03-16T12:05:46;11.90;;;11.20;;
15905;SDS011;8051;50.820;4.884;2023-03-16T12:08:28;13.13;;;12.33;;
15905;SDS011;8051;50.820;4.884;2023-03-16T12:11:06;11.33;;;10.73;;
15905;SDS011;8051;50.820;4.884;2023-03-16T12:13:43;10.30;;;9.73;;
15905;SDS011;8051;50.820;4.884;2023-03-16T12:16:26;10.53;;;9.93;;
15905;SDS011;8051;50.820;4.884;2023-03-16T12:18:58;11.03;;;10.53;;
15905;SDS011;8051;50.820;4.884;2023-03-16T12:21:29;10.50;;;9.77;;
15905;SDS011;8051;50.820;4.884;2023-03-16T12:24:02;11.07;;;10.37;;
15905;SDS011;8051;50.820;4.884;2023-03-16T12:26:32;10.90;;;10.20;;
15905;SDS011;8051;50.820;4.884;2023-03-16T12:29:06;10.80;;;10.20;;
15905;SDS011;8051;50.820;4.884;2023-03-16T12:31:45;10.57;;;9.97;;
15905;SDS011;8051;50.820;4.884;2023-03-16T12:34:21;10.33;;;9.83;;
15905;SDS011;8051;50.820;4.884;2023-03-16T12:36:58;11.30;;;10.33;;
15905;SDS011;8051;50.820;4.884;2023-03-16T12:39:39;11.00;;;10.40;;
15905;SDS011;8051;50.820;4.884;2023-03-16T12:42:24;11.80;;;10.70;;
15905;SDS011;8051;50.820;4.884;2023-03-16T12:45:02;10.40;;;9.70;;
15905;SDS011;8051;50.820;4.884;2023-03-16T12:47:35;10.50;;;9.80;;
15905;SDS011;8051;50.820;4.884;2023-03-16T12:50:10;11.27;;;10.67;;
15905;SDS011;8051;50.820;4.884;2023-03-16T12:52:40;11.30;;;10.37;;
15905;SDS011;8051;50.820;4.884;2023-03-16T12:55:11;10.10;;;9.60;;
15905;SDS011;8051;50.820;4.884;2023-03-16T12:57:40;11.37;;;10.70;;
15905;SDS011;8051;50.820;4.884;2023-03-16T13:00:11;10.47;;;9.70;;
15905;SDS011;8051;50.820;4.884;2023-03-16T13:02:41;9.63;;;9.03;;
15905;SDS011;8051;50.820;4.884;2023-03-16T13:05:12;10.20;;;9.50;;
15905;SDS011;8051;50.820;4.884;2023-03-16T13:07:47;10.50;;;9.90;;
15905;SDS011;8051;50.820;4.884;2023-03-16T13:10:17;10.70;;;10.20;;
15905;SDS011;8051;50.820;4.884;2023-03-16T13:12:46;9.43;;;8.93;;
15905;SDS011;8051;50.820;4.884;2023-03-16T13:15:26;10.23;;;9.73;;
15905;SDS011;8051;50.820;4.884;2023-03-16T13:18:03;9.80;;;9.30;;
15905;SDS011;8051;50.820;4.884;2023-03-16T13:20:54;10.20;;;9.60;;
15905;SDS011;8051;50.820;4.884;2023-03-16T13:23:24;11.00;;;10.10;;
15905;SDS011;8051;50.820;4.884;2023-03-16T13:26:10;10.00;;;9.47;;
15905;SDS011;8051;50.820;4.884;2023-03-16T13:28:41;10.50;;;9.80;;
15905;SDS011;8051;50.820;4.884;2023-03-16T13:31:19;10.70;;;10.03;;
15905;SDS011;8051;50.820;4.884;2023-03-16T13:33:52;9.90;;;9.40;;
15905;SDS011;8051;50.820;4.884;2023-03-16T13:36:24;10.60;;;10.10;;
15905;SDS011;8051;50.820;4.884;2023-03-16T13:39:00;9.90;;;9.40;;
15905;SDS011;8051;50.820;4.884;2023-03-16T13:41:31;10.80;;;10.00;;
15905;SDS011;8051;50.820;4.884;2023-03-16T13:43:58;10.10;;;9.50;;
15905;SDS011;8051;50.820;4.884;2023-03-16T13:46:28;9.97;;;9.50;;
15905;SDS011;8051;50.820;4.884;2023-03-16T13:48:57;10.13;;;9.50;;
15905;SDS011;8051;50.820;4.884;2023-03-16T13:51:36;10.13;;;9.63;;
15905;SDS011;8051;50.820;4.884;2023-03-16T13:54:10;10.30;;;9.70;;
15905;SDS011;8051;50.820;4.884;2023-03-16T13:56:48;10.50;;;10.00;;
15905;SDS011;8051;50.820;4.884;2023-03-16T13:59:16;11.10;;;10.17;;
15905;SDS011;8051;50.820;4.884;2023-03-16T14:01:47;10.00;;;9.50;;
15905;SDS011;8051;50.820;4.884;2023-03-16T14:04:22;10.03;;;9.53;;
15905;SDS011;8051;50.820;4.884;2023-03-16T14:06:53;11.03;;;10.43;;
15905;SDS011;8051;50.820;4.884;2023-03-16T14:09:22;10.30;;;9.80;;
15905;SDS011;8051;50.820;4.884;2023-03-16T14:11:52;13.60;;;12.63;;
15905;SDS011;8051;50.820;4.884;2023-03-16T14:14:24;11.90;;;11.20;;
15905;SDS011;8051;50.820;4.884;2023-03-16T14:17:00;11.90;;;11.30;;
15905;SDS011;8051;50.820;4.884;2023-03-16T14:19:29;11.97;;;11.37;;
15905;SDS011;8051;50.820;4.884;2023-03-16T14:22:09;11.90;;;11.00;;
15905;SDS011;8051;50.820;4.884;2023-03-16T14:24:43;12.07;;;11.47;;
15905;SDS011;8051;50.820;4.884;2023-03-16T14:27:20;12.53;;;11.73;;
15905;SDS011;8051;50.820;4.884;2023-03-16T14:30:14;11.20;;;10.70;;
15905;SDS011;8051;50.820;4.884;2023-03-16T14:32:54;10.97;;;10.27;;
15905;SDS011;8051;50.820;4.884;2023-03-16T14:35:24;10.63;;;9.93;;
15905;SDS011;8051;50.820;4.884;2023-03-16T14:37:54;11.13;;;10.53;;
15905;SDS011;8051;50.820;4.884;2023-03-16T14:40:23;10.47;;;9.97;;
15905;SDS011;8051;50.820;4.884;2023-03-16T14:42:54;12.73;;;12.03;;
15905;SDS011;8051;50.820;4.884;2023-03-16T14:45:25;11.47;;;10.77;;
15905;SDS011;8051;50.820;4.884;2023-03-16T14:48:01;10.63;;;10.03;;
15905;SDS011;8051;50.820;4.884;2023-03-16T14:50:31;12.00;;;11.40;;
15905;SDS011;8051;50.820;4.884;2023-03-16T14:52:59;12.60;;;11.80;;
15905;SDS011;8051;50.820;4.884;2023-03-16T14:55:28;12.73;;;12.03;;
15905;SDS011;8051;50.820;4.884;2023-03-16T14:57:56;12.80;;;12.10;;
15905;SDS011;8051;50.820;4.884;2023-03-16T15:00:23;12.67;;;12.00;;
15905;SDS011;8051;50.820;4.884;2023-03-16T15:02:53;12.10;;;11.50;;
15905;SDS011;8051;50.820;4.884;2023-03-16T15:05:29;11.23;;;10.73;;
15905;SDS011;8051;50.820;4.884;2023-03-16T15:07:59;11.10;;;10.50;;